Time;durP1;ratioP1;P1;durP2;ratioP2;P2;SDS_P1;SDS_P2;PMS_P1;PMS_P2;Temp;Humidity;BMP_temperature;BMP_pressure;BME280_temperature;BME280_humidity;BME280_pressure;Samples;Min_cycle;Max_cycle;Signal;HPM_P1;HPM_P2
2022/06/19 00:00:45;;;;;;;8.00;1.42;;;;;;;15.39;80.66;101492.19;5011237;28;20487;-39
2022/06/19 00:03:20;;;;;;;5.05;0.95;;;;;;;15.44;80.65;101525.81;5011656;28;20054;-33
2022/06/19 00:05:49;;;;;;;6.30;1.52;;;;;;;15.46;80.93;101531.97;5011541;28;20046;-37
2022/06/19 00:08:17;;;;;;;6.78;1.23;;;;;;;15.47;81.42;101522.38;5011798;28;20049;-29
2022/06/19 00:10:45;;;;;;;6.75;1.40;;;;;;;15.49;81.25;101525.72;5012258;28;20062;-29
2022/06/19 00:13:12;;;;;;;9.07;1.52;;;;;;;15.49;81.81;101562.28;5011062;28;20046;-30
2022/06/19 00:15:40;;;;;;;7.00;1.65;;;;;;;15.50;83.18;101591.25;5011817;28;20507;-39
2022/06/19 00:18:08;;;;;;;8.82;1.60;;;;;;;15.51;84.55;101581.66;5011727;28;20045;-29
2022/06/19 00:20:38;;;;;;;9.98;1.98;;;;;;;15.51;85.67;101576.88;5009549;28;20136;-29
2022/06/19 00:23:08;;;;;;;7.80;1.58;;;;;;;15.49;86.19;101527.69;5010288;28;20046;-29
2022/06/19 00:25:37;;;;;;;8.88;1.77;;;;;;;15.46;86.22;101486.13;5009897;28;20112;-37
2022/06/19 00:28:05;;;;;;;7.10;1.40;;;;;;;15.42;86.38;101502.81;5009041;28;20149;-30
2022/06/19 00:30:34;;;;;;;7.97;1.50;;;;;;;15.41;85.36;101489.06;5008687;28;20426;-30
2022/06/19 00:33:02;;;;;;;6.38;1.40;;;;;;;15.38;84.25;101465.22;5009640;28;20064;-28
2022/06/19 00:35:31;;;;;;;8.15;1.20;;;;;;;15.38;83.63;101470.88;5008706;28;20050;-32
2022/06/19 00:37:59;;;;;;;6.80;1.60;;;;;;;15.38;83.44;101456.81;5010005;28;20048;-33
2022/06/19 00:40:31;;;;;;;9.40;1.85;;;;;;;15.39;83.53;101450.00;5011703;28;20057;-28
2022/06/19 00:42:59;;;;;;;;;;;;;;;15.32;82.61;101440.34;5011549;28;20068;-33
2022/06/19 00:45:29;;;;;;;9.27;1.52;;;;;;;15.28;82.40;101425.25;5011565;28;20031;-28
2022/06/19 00:47:58;;;;;;;9.32;1.33;;;;;;;15.31;81.56;101421.81;5013249;28;20609;-27
2022/06/19 00:50:29;;;;;;;5.82;1.38;;;;;;;15.29;80.29;101419.31;5014545;28;20041;-29
2022/06/19 00:52:58;;;;;;;7.55;1.40;;;;;;;15.28;79.23;101416.81;5014634;28;20509;-32
2022/06/19 00:55:31;;;;;;;5.20;1.13;;;;;;;15.26;78.01;101376.94;5013932;28;20418;-27
2022/06/19 00:58:05;;;;;;;5.10;0.88;;;;;;;15.24;77.31;101394.13;5014870;28;20077;-28
2022/06/19 01:00:33;;;;;;;6.82;1.30;;;;;;;15.22;76.80;101407.66;5014686;28;20462;-29
2022/06/19 01:03:06;;;;;;;7.25;1.50;;;;;;;15.23;76.15;101434.63;5014166;28;20503;-28
2022/06/19 01:05:36;;;;;;;5.88;1.30;;;;;;;15.22;76.02;101447.03;5015181;28;20046;-28
2022/06/19 01:08:05;;;;;;;5.30;1.45;;;;;;;15.23;76.37;101448.69;5015015;28;20054;-34
2022/06/19 01:10:38;;;;;;;9.18;1.90;;;;;;;15.21;76.56;101445.38;5013622;28;20141;-31
2022/06/19 01:13:05;;;;;;;9.88;1.77;;;;;;;15.20;76.97;101449.31;5015223;28;20060;-27
2022/06/19 01:15:34;;;;;;;5.68;1.40;;;;;;;15.18;77.68;101456.44;5014608;28;20048;-31
2022/06/19 01:18:05;;;;;;;6.45;1.63;;;;;;;15.16;78.03;101480.06;5014283;28;20046;-35
2022/06/19 01:20:35;;;;;;;5.47;1.23;;;;;;;15.15;78.58;101488.81;5014687;28;20414;-29
2022/06/19 01:23:11;;;;;;;10.05;1.60;;;;;;;15.15;79.16;101455.91;5014133;28;20053;-28
2022/06/19 01:25:42;;;;;;;6.60;1.17;;;;;;;15.10;79.37;101424.25;5014664;28;20046;-33
2022/06/19 01:30:59;;;;;;;10.55;1.73;;;;;;;15.05;80.81;101402.72;5013721;28;20458;-31
2022/06/19 01:33:31;;;;;;;7.18;1.13;;;;;;;15.03;81.27;101382.53;5014651;28;20096;-28
2022/06/19 01:36:02;;;;;;;12.77;2.17;;;;;;;15.01;81.85;101353.06;5014414;28;20038;-32
2022/06/19 01:38:33;;;;;;;7.95;1.40;;;;;;;14.99;82.45;101335.69;5014078;28;20034;-28
2022/06/19 01:41:08;;;;;;;9.80;1.90;;;;;;;14.97;82.76;101304.28;5014378;28;20392;-26
2022/06/19 01:43:35;;;;;;;9.93;1.50;;;;;;;14.94;82.66;101272.03;5014446;28;20058;-27
2022/06/19 01:46:05;;;;;;;7.75;1.48;;;;;;;14.92;83.22;101218.13;5013299;28;20050;-33
2022/06/19 01:48:34;;;;;;;6.70;1.30;;;;;;;14.91;83.41;101269.03;5014525;28;20058;-33
2022/06/19 01:51:05;;;;;;;12.05;1.95;;;;;;;14.92;83.52;101299.63;5013426;28;20054;-28
2022/06/19 01:53:38;;;;;;;7.43;1.45;;;;;;;14.91;84.20;101295.16;5011413;28;20050;-32
2022/06/19 01:56:10;;;;;;;9.82;1.30;;;;;;;14.89;84.95;101316.28;5014039;28;20046;-26
2022/06/19 01:58:43;;;;;;;8.75;1.40;;;;;;;14.86;86.45;101292.44;5009399;28;20050;-28
2022/06/19 02:01:11;;;;;;;11.70;1.55;;;;;;;14.81;88.64;101231.59;5014161;28;20476;-28
2022/06/19 02:03:43;;;;;;;12.80;2.15;;;;;;;14.77;90.39;101244.63;5014129;28;20050;-27
2022/06/19 02:06:13;;;;;;;;;;;;;;;14.67;93.19;101281.38;5013610;28;20578;-29
2022/06/19 02:08:41;;;;;;;8.30;1.63;;;;;;;14.58;94.10;101310.53;5013761;28;20317;-28
2022/06/19 02:11:12;;;;;;;10.85;1.83;;;;;;;14.57;95.19;101311.69;5012380;28;20132;-32
2022/06/19 02:13:41;;;;;;;7.35;1.52;;;;;;;14.52;96.38;101286.53;5013148;28;20125;-29
2022/06/19 02:16:14;;;;;;;9.23;1.52;;;;;;;14.48;98.03;101241.38;5013948;28;20042;-36
2022/06/19 02:18:45;;;;;;;8.95;1.70;;;;;;;14.41;99.53;101258.66;5012386;28;20116;-33
2022/06/19 02:21:18;;;;;;;7.93;1.60;;;;;;;14.35;100.00;101256.25;4997085;28;20054;-33
2022/06/19 02:23:49;;;;;;;8.13;1.55;;;;;;;14.25;100.00;101225.59;5013459;28;20513;-27
2022/06/19 02:26:19;;;;;;;9.05;2.00;;;;;;;14.19;100.00;101204.44;5012994;28;20073;-27
2022/06/19 02:28:50;;;;;;;14.23;2.55;;;;;;;14.11;100.00;101192.78;5013412;28;20503;-26
2022/06/19 02:31:20;;;;;;;12.70;2.00;;;;;;;14.01;100.00;101190.19;5013626;28;20123;-26
2022/06/19 02:33:52;;;;;;;13.90;1.98;;;;;;;13.94;100.00;101183.38;5012427;28;20052;-27
2022/06/19 02:36:37;;;;;;;8.63;1.23;;;;;;;13.91;100.00;101206.44;5013839;28;20050;-30
2022/06/19 02:39:18;;;;;;;8.98;1.90;;;;;;;13.87;100.00;101219.41;5013428;28;20101;-29
2022/06/19 02:41:56;;;;;;;13.57;1.70;;;;;;;13.87;100.00;101231.47;5012546;28;20495;-34
2022/06/19 02:44:32;;;;;;;9.05;1.50;;;;;;;13.87;100.00;101244.66;5013053;28;20187;-33
2022/06/19 02:47:00;;;;;;;13.38;1.85;;;;;;;13.86;100.00;101223.34;4996672;28;20559;-33
2022/06/19 02:49:27;;;;;;;10.85;1.77;;;;;;;13.85;100.00;101225.34;5012484;28;20096;-27
2022/06/19 02:51:56;;;;;;;14.73;2.25;;;;;;;13.84;100.00;101218.06;5013163;28;20050;-28
2022/06/19 02:54:24;;;;;;;8.80;1.95;;;;;;;13.85;100.00;101222.53;5012344;28;20068;-28
2022/06/19 02:56:53;;;;;;;9.55;1.65;;;;;;;13.85;100.00;101230.94;5012915;28;20049;-27
2022/06/19 02:59:21;;;;;;;11.00;1.75;;;;;;;13.84;100.00;101220.88;5012856;28;20104;-33
2022/06/19 03:01:49;;;;;;;9.30;1.52;;;;;;;13.82;100.00;101245.59;5012476;28;20574;-31
2022/06/19 03:04:20;;;;;;;11.20;2.83;;;;;;;13.83;100.00;101252.03;5012694;28;20109;-27
2022/06/19 03:06:48;;;;;;;12.52;2.10;;;;;;;13.82;100.00;101233.53;5013086;28;20077;-30
2022/06/19 03:09:16;;;;;;;12.13;2.40;;;;;;;13.84;100.00;101248.09;5010882;28;20049;-29
2022/06/19 03:11:44;;;;;;;14.98;2.20;;;;;;;13.82;100.00;101259.63;5013180;28;20057;-28
2022/06/19 03:14:13;;;;;;;9.32;1.88;;;;;;;13.81;100.00;101238.31;5012549;28;20053;-29
2022/06/19 03:16:41;;;;;;;9.13;1.83;;;;;;;13.79;100.00;101223.75;5012213;28;20128;-27
2022/06/19 03:19:10;;;;;;;9.95;2.15;;;;;;;13.78;100.00;101216.53;5012241;28;20053;-34
2022/06/19 03:21:37;;;;;;;10.77;2.00;;;;;;;13.76;100.00;101214.03;5012790;28;20046;-35
2022/06/19 03:24:06;;;;;;;8.77;1.98;;;;;;;13.77;100.00;101204.47;5011443;28;20046;-30
2022/06/19 03:26:34;;;;;;;12.30;2.13;;;;;;;13.76;100.00;101211.22;5012593;28;20050;-33
2022/06/19 03:29:02;;;;;;;9.05;1.70;;;;;;;13.76;100.00;101204.78;5012462;28;20550;-33
2022/06/19 03:31:32;;;;;;;12.02;2.00;;;;;;;13.74;100.00;101201.47;5011741;28;20050;-31
2022/06/19 03:34:00;;;;;;;8.50;1.58;;;;;;;13.69;100.00;101218.38;5012401;28;20398;-35
2022/06/19 03:36:28;;;;;;;10.93;1.85;;;;;;;13.61;100.00;101221.91;5011971;28;20069;-26
2022/06/19 03:38:56;;;;;;;11.30;2.00;;;;;;;13.52;100.00;101213.41;5012300;28;20050;-31
2022/06/19 03:41:24;;;;;;;7.85;1.50;;;;;;;13.41;100.00;101214.72;5012033;28;20499;-36
2022/06/19 03:43:52;;;;;;;9.38;1.75;;;;;;;13.33;100.00;101210.69;5011256;28;20124;-28
2022/06/19 03:46:21;;;;;;;9.77;1.60;;;;;;;13.24;100.00;101212.50;5011775;28;20042;-30
2022/06/19 03:48:52;;;;;;;9.40;1.88;;;;;;;13.20;100.00;101227.44;5011656;28;20053;-32
2022/06/19 03:51:23;;;;;;;7.57;1.40;;;;;;;13.17;100.00;101251.34;5011227;28;20046;-31
2022/06/19 03:53:52;;;;;;;8.38;1.35;;;;;;;13.14;100.00;101248.28;5012071;28;20133;-33
2022/06/19 03:56:25;;;;;;;10.50;1.85;;;;;;;13.12;100.00;101251.38;5011723;28;20046;-28
2022/06/19 03:58:54;;;;;;;7.55;1.20;;;;;;;13.07;100.00;101262.66;5011412;28;20181;-34
2022/06/19 04:01:25;;;;;;;13.57;1.45;;;;;;;13.04;100.00;101274.47;5010954;28;20060;-31
2022/06/19 04:03:56;;;;;;;6.18;1.20;;;;;;;13.00;100.00;101265.84;5012087;28;20108;-25
2022/06/19 04:06:27;;;;;;;8.33;1.50;;;;;;;12.97;100.00;101257.25;5011048;28;20046;-28
2022/06/19 04:08:55;;;;;;;10.30;1.45;;;;;;;12.94;100.00;101241.88;5012360;28;20042;-33
2022/06/19 04:11:25;;;;;;;7.20;1.30;;;;;;;12.94;100.00;101257.88;5011713;28;20168;-32
2022/06/19 04:13:54;;;;;;;5.85;1.35;;;;;;;12.93;100.00;101245.81;5011167;28;20108;-29
2022/06/19 04:16:23;;;;;;;7.90;1.20;;;;;;;12.94;100.00;101243.84;5011721;28;20104;-27
2022/06/19 04:18:55;;;;;;;9.63;1.38;;;;;;;12.91;100.00;101255.66;5011325;28;20137;-27
2022/06/19 04:21:25;;;;;;;8.10;1.75;;;;;;;12.88;100.00;101247.88;5011935;28;20477;-27
2022/06/19 04:23:56;;;;;;;10.02;1.90;;;;;;;12.86;100.00;101250.13;5014906;28;20062;-28
2022/06/19 04:26:25;;;;;;;12.00;1.58;;;;;;;12.81;100.00;101242.66;5013743;28;20046;-29
2022/06/19 04:28:54;;;;;;;8.65;1.50;;;;;;;12.77;100.00;101236.84;5014932;28;20076;-27
2022/06/19 04:31:23;;;;;;;9.32;1.40;;;;;;;12.73;100.00;101224.59;5014514;28;20046;-27
2022/06/19 04:33:52;;;;;;;10.00;1.35;;;;;;;12.69;100.00;101206.72;5010911;28;20507;-28
2022/06/19 04:36:24;;;;;;;10.73;2.13;;;;;;;12.67;100.00;101199.75;5014579;28;20045;-29
2022/06/19 04:38:54;;;;;;;7.05;1.67;;;;;;;12.65;100.00;101186.06;5013691;28;20045;-27
2022/06/19 04:41:25;;;;;;;8.90;1.17;;;;;;;12.64;100.00;101187.19;5013912;28;20136;-27
2022/06/19 04:43:54;;;;;;;8.15;1.48;;;;;;;12.63;100.00;101177.13;5012823;28;20120;-27
2022/06/19 04:46:22;;;;;;;9.82;1.35;;;;;;;12.64;100.00;101191.97;5013923;28;20065;-28
2022/06/19 04:48:50;;;;;;;7.47;1.45;;;;;;;12.64;100.00;101208.75;5012823;28;20150;-28
2022/06/19 04:51:18;;;;;;;6.88;1.13;;;;;;;12.66;100.00;101212.09;5013742;28;20062;-28
2022/06/19 04:53:48;;;;;;;9.40;2.00;;;;;;;12.68;100.00;101215.44;5013766;28;20072;-27
2022/06/19 04:56:18;;;;;;;5.95;1.10;;;;;;;12.69;100.00;101226.31;5013683;28;20050;-28
2022/06/19 04:58:46;;;;;;;10.27;1.65;;;;;;;12.72;100.00;101236.91;5014200;28;20049;-28
2022/06/19 05:01:21;;;;;;;9.60;1.58;;;;;;;12.75;100.00;101243.88;5013178;28;20050;-28
2022/06/19 05:03:49;;;;;;;6.93;1.15;;;;;;;12.77;100.00;101236.84;5014033;28;20172;-28
2022/06/19 05:06:17;;;;;;;6.78;1.40;;;;;;;12.80;100.00;101240.97;5014386;28;20057;-29
2022/06/19 05:08:45;;;;;;;5.97;1.20;;;;;;;12.83;100.00;101236.75;5012616;28;20048;-29
2022/06/19 05:11:15;;;;;;;7.93;1.23;;;;;;;12.88;100.00;101222.66;5014180;28;20042;-28
2022/06/19 05:13:43;;;;;;;4.32;1.08;;;;;;;12.90;100.00;101206.38;5013564;28;20096;-27
2022/06/19 05:16:13;;;;;;;7.30;1.20;;;;;;;12.95;100.00;101203.50;5013262;28;20054;-28
2022/06/19 05:18:42;;;;;;;7.65;1.38;;;;;;;13.02;100.00;101213.16;5013378;28;20444;-29
2022/06/19 05:21:10;;;;;;;6.90;1.00;;;;;;;13.10;100.00;101212.47;5013976;28;20060;-29
2022/06/19 05:23:40;;;;;;;4.53;0.88;;;;;;;13.17;100.00;101214.91;5012650;28;20053;-28
2022/06/19 05:26:10;;;;;;;5.60;1.00;;;;;;;13.25;100.00;101218.94;5013793;28;20046;-27
2022/06/19 05:28:39;;;;;;;8.88;1.25;;;;;;;13.31;100.00;101221.34;5013392;28;20042;-29
2022/06/19 05:31:07;;;;;;;8.13;1.27;;;;;;;13.36;100.00;101220.44;5012975;28;20050;-28
2022/06/19 05:33:35;;;;;;;5.90;0.95;;;;;;;13.40;100.00;101218.66;5012398;28;20053;-29
2022/06/19 05:36:04;;;;;;;6.68;1.35;;;;;;;13.42;100.00;101214.41;5013217;28;20468;-28
2022/06/19 05:38:33;;;;;;;4.65;1.10;;;;;;;13.47;100.00;101207.03;5013248;28;20061;-28
2022/06/19 05:41:02;;;;;;;5.78;1.02;;;;;;;13.52;100.00;101204.97;5013627;28;20126;-28
2022/06/19 05:43:32;;;;;;;5.00;1.00;;;;;;;13.62;100.00;101195.53;5011026;28;20045;-28
2022/06/19 05:46:04;;;;;;;5.15;1.00;;;;;;;13.73;100.00;101209.03;5013471;28;20042;-28
2022/06/19 05:48:33;;;;;;;4.45;0.88;;;;;;;13.87;100.00;101209.03;5013203;28;20056;-28
2022/06/19 05:51:04;;;;;;;5.15;0.90;;;;;;;13.99;100.00;101211.28;5012336;28;20049;-28
2022/06/19 05:53:35;;;;;;;5.65;1.00;;;;;;;14.10;100.00;101232.38;5013155;28;20056;-28
2022/06/19 05:56:03;;;;;;;4.85;1.02;;;;;;;14.17;100.00;101251.63;5012866;28;20060;-28
2022/06/19 05:58:31;;;;;;;4.75;1.13;;;;;;;14.24;100.00;101263.22;5012452;28;20044;-29
2022/06/19 06:01:02;;;;;;;4.80;1.10;;;;;;;14.26;100.00;101280.59;5012970;28;20089;-29
2022/06/19 06:03:30;;;;;;;5.47;0.90;;;;;;;14.30;100.00;101306.91;5013113;28;20054;-28
2022/06/19 06:06:00;;;;;;;5.13;1.00;;;;;;;14.33;100.00;101326.75;5012165;28;20252;-29
2022/06/19 06:08:28;;;;;;;4.07;0.93;;;;;;;14.35;100.00;101324.47;5012402;28;20089;-30
2022/06/19 06:10:57;;;;;;;4.95;1.00;;;;;;;14.35;100.00;101338.50;5012888;28;20068;-28
2022/06/19 06:13:25;;;;;;;7.10;0.90;;;;;;;14.31;100.00;101315.00;5012098;28;20445;-28
2022/06/19 06:15:53;;;;;;;4.50;1.00;;;;;;;14.30;100.00;101301.28;5012456;28;20141;-29
2022/06/19 06:18:22;;;;;;;4.22;0.75;;;;;;;14.32;100.00;101290.56;5011949;28;20572;-28
2022/06/19 06:20:54;;;;;;;4.95;1.00;;;;;;;14.35;100.00;101316.06;5012024;28;20080;-28
2022/06/19 06:23:22;;;;;;;;;;;;;;;14.32;100.00;101307.41;5013255;28;20418;-28
2022/06/19 06:25:58;;;;;;;5.00;1.13;;;;;;;14.38;100.00;101309.81;5011387;28;19933;-28
2022/06/19 06:28:26;;;;;;;3.50;1.10;;;;;;;14.48;100.00;101322.81;5012772;28;20064;-30
2022/06/19 06:30:54;;;;;;;3.90;1.20;;;;;;;14.57;100.00;101317.31;5011935;28;20046;-28
2022/06/19 06:33:23;;;;;;;4.13;0.85;;;;;;;14.62;100.00;101318.00;5011350;28;20099;-28
2022/06/19 06:35:51;;;;;;;4.38;0.80;;;;;;;14.66;100.00;101321.84;5012308;28;20060;-28
2022/06/19 06:38:19;;;;;;;4.72;1.10;;;;;;;14.69;100.00;101326.84;5012808;28;20042;-27
2022/06/19 06:40:47;;;;;;;4.50;1.00;;;;;;;14.69;100.00;101326.84;5011405;28;20049;-28
2022/06/19 06:43:15;;;;;;;5.85;1.10;;;;;;;14.70;100.00;101322.06;5011041;28;20049;-28
2022/06/19 06:45:43;;;;;;;4.95;1.05;;;;;;;14.72;100.00;101331.00;5011986;28;20038;-30
2022/06/19 06:48:11;;;;;;;4.60;1.08;;;;;;;14.71;100.00;101349.00;5011345;28;20137;-28
2022/06/19 06:50:41;;;;;;;3.58;0.70;;;;;;;14.68;100.00;101361.69;5012052;28;20064;-28
2022/06/19 06:53:09;;;;;;;4.40;0.80;;;;;;;14.63;100.00;101366.59;5012029;28;20356;-28
2022/06/19 06:55:39;;;;;;;3.85;0.93;;;;;;;14.61;100.00;101369.69;5010967;28;20467;-28
2022/06/19 06:58:07;;;;;;;5.15;1.00;;;;;;;14.61;100.00;101358.47;5011937;28;20062;-28
2022/06/19 07:00:36;;;;;;;3.83;1.08;;;;;;;14.65;100.00;101362.31;5010899;28;20626;-32
2022/06/19 07:03:04;;;;;;;3.47;0.80;;;;;;;14.68;100.00;101364.50;5011561;28;20049;-28
2022/06/19 07:05:32;;;;;;;5.60;1.02;;;;;;;14.73;100.00;101377.63;5011633;28;20065;-35
2022/06/19 07:08:02;;;;;;;3.63;0.80;;;;;;;14.76;100.00;101400.28;5010767;28;20530;-32
2022/06/19 07:10:29;;;;;;;3.63;0.90;;;;;;;14.77;100.00;101412.38;5011611;28;20084;-29
2022/06/19 07:12:57;;;;;;;4.55;0.90;;;;;;;14.79;100.00;101412.84;5010620;28;20049;-31
2022/06/19 07:15:25;;;;;;;4.68;0.90;;;;;;;14.81;100.00;101408.59;5011866;28;20054;-31
2022/06/19 07:17:54;;;;;;;2.67;0.60;;;;;;;14.88;100.00;101416.59;5012245;28;20065;-37
2022/06/19 07:20:21;;;;;;;2.58;0.68;;;;;;;14.96;100.00;101423.47;5012850;28;20406;-32
2022/06/19 07:22:49;;;;;;;2.17;0.60;;;;;;;15.04;100.00;101436.75;5011492;28;20491;-32
2022/06/19 07:25:20;;;;;;;3.00;0.70;;;;;;;15.10;100.00;101438.31;5012549;28;20068;-33
2022/06/19 07:27:49;;;;;;;3.90;0.93;;;;;;;15.09;100.00;101431.88;5012006;28;20410;-27
2022/06/19 07:30:19;;;;;;;3.60;0.75;;;;;;;15.10;100.00;101438.31;5011873;28;20136;-28
2022/06/19 07:32:47;;;;;;;3.88;0.77;;;;;;;15.11;100.00;101440.00;5012243;28;20042;-28
2022/06/19 07:35:15;;;;;;;3.35;0.70;;;;;;;15.10;100.00;101441.13;5012475;28;20042;-28
2022/06/19 07:37:43;;;;;;;4.05;0.93;;;;;;;15.10;100.00;101433.53;5011277;28;20060;-29
2022/06/19 07:40:13;;;;;;;3.42;0.95;;;;;;;15.09;100.00;101433.84;5012194;28;20045;-28
2022/06/19 07:42:42;;;;;;;3.67;0.68;;;;;;;15.09;100.00;101437.50;5011201;28;20086;-29
2022/06/19 07:45:10;;;;;;;4.15;0.80;;;;;;;15.13;100.00;101437.69;5012192;28;20073;-27
2022/06/19 07:50:26;;;;;;;3.92;1.08;;;;;;;15.15;100.00;101424.16;5011408;28;20052;-27
2022/06/19 07:52:54;;;;;;;4.93;0.90;;;;;;;15.16;100.00;101420.19;5011576;28;20410;-29
2022/06/19 07:55:25;;;;;;;4.53;0.60;;;;;;;15.22;100.00;101420.88;5011424;28;20491;-30
2022/06/19 07:57:55;;;;;;;5.05;0.80;;;;;;;15.27;100.00;101418.81;5011139;28;20038;-28
2022/06/19 08:00:26;;;;;;;5.38;1.00;;;;;;;15.32;100.00;101415.03;5011941;28;20048;-28
2022/06/19 08:02:54;;;;;;;4.53;0.98;;;;;;;15.36;100.00;101427.31;5011873;28;20513;-30
2022/06/19 08:05:24;;;;;;;5.75;0.95;;;;;;;15.45;100.00;101416.97;5007799;28;20460;-36
2022/06/19 08:07:53;;;;;;;3.88;0.73;;;;;;;15.56;100.00;101426.88;5011154;28;20038;-29
2022/06/19 08:10:25;;;;;;;6.00;1.15;;;;;;;15.72;100.00;101428.13;5010664;28;20042;-26
2022/06/19 08:12:55;;;;;;;4.57;0.80;;;;;;;15.89;100.00;101420.97;5010310;28;20042;-31
2022/06/19 08:15:23;;;;;;;5.28;0.90;;;;;;;16.09;100.00;101426.88;5010695;28;20510;-28
2022/06/19 08:17:52;;;;;;;4.95;0.90;;;;;;;16.35;100.00;101423.38;5010002;28;20057;-31
2022/06/19 08:20:22;;;;;;;3.72;0.90;;;;;;;16.62;100.00;101428.78;5010676;28;20517;-29
2022/06/19 08:22:49;;;;;;;5.65;1.23;;;;;;;16.83;100.00;101434.66;5010938;28;20041;-31
2022/06/19 08:25:19;;;;;;;5.13;1.38;;;;;;;16.95;100.00;101440.53;5009807;28;20470;-39
2022/06/19 08:27:49;;;;;;;5.38;1.10;;;;;;;17.07;100.00;101437.06;5010725;28;20068;-28
2022/06/19 08:30:20;;;;;;;5.47;1.20;;;;;;;17.18;100.00;101429.97;5010223;28;20084;-28
2022/06/19 08:32:48;;;;;;;4.18;1.00;;;;;;;17.15;100.00;101419.34;5010342;28;20142;-29
2022/06/19 08:35:17;;;;;;;4.78;1.33;;;;;;;17.14;100.00;101420.50;5009276;28;20057;-28
2022/06/19 08:37:48;;;;;;;4.28;0.90;;;;;;;17.16;100.00;101421.00;5010722;28;20557;-29
2022/06/19 08:40:36;;;;;;;5.05;1.10;;;;;;;17.12;100.00;101409.53;5009614;28;20064;-28
2022/06/19 08:43:16;;;;;;;4.93;1.10;;;;;;;17.13;100.00;101404.72;5011068;28;20120;-28
2022/06/19 08:46:07;;;;;;;7.63;1.23;;;;;;;17.22;100.00;101400.72;5010552;28;20096;-28
2022/06/19 08:48:56;;;;;;;7.78;1.10;;;;;;;17.37;100.00;101399.44;5010643;28;20058;-29
2022/06/19 08:51:33;;;;;;;6.20;1.17;;;;;;;17.54;100.00;101390.97;5007332;28;20050;-28
2022/06/19 08:54:18;;;;;;;5.05;0.90;;;;;;;17.81;100.00;101380.47;5009887;28;20060;-27
2022/06/19 08:56:58;;;;;;;5.20;1.10;;;;;;;18.07;98.76;101374.75;5008511;28;20064;-34
2022/06/19 08:59:35;;;;;;;4.40;0.95;;;;;;;18.28;96.23;101361.56;5010076;28;20343;-29
2022/06/19 09:02:17;;;;;;;4.35;0.90;;;;;;;18.56;96.34;101361.91;5009031;28;20046;-33
2022/06/19 09:07:53;;;;;;;5.80;1.40;;;;;;;18.79;92.74;101342.66;5010188;28;19928;-36
2022/06/19 09:10:31;;;;;;;5.35;1.00;;;;;;;19.05;92.15;101339.66;5013886;28;20133;-28
2022/06/19 09:13:18;;;;;;;5.50;1.45;;;;;;;19.32;88.72;101332.59;5014034;28;20066;-31
2022/06/19 09:15:52;;;;;;;5.68;1.40;;;;;;;19.65;87.19;101346.78;5012674;28;20483;-30
2022/06/19 09:18:30;;;;;;;7.53;1.40;;;;;;;19.93;85.26;101342.16;5010505;28;20082;-30
2022/06/19 09:21:10;;;;;;;6.13;1.40;;;;;;;20.28;81.24;101337.72;5013839;28;20041;-30
2022/06/19 09:24:11;;;;;;;6.70;1.42;;;;;;;20.47;79.79;101314.47;5011637;28;20679;-29
2022/06/19 09:26:44;;;;;;;4.35;1.17;;;;;;;20.56;79.68;101328.53;5008973;28;20491;-30
2022/06/19 09:29:19;;;;;;;6.78;1.40;;;;;;;20.94;80.30;101330.97;4993198;28;20054;-40
2022/06/19 09:31:53;;;;;;;5.55;1.35;;;;;;;21.16;77.24;101338.13;5007436;28;20046;-31
2022/06/19 09:34:31;;;;;;;5.00;1.25;;;;;;;21.24;75.84;101332.31;5012559;28;20156;-35
2022/06/19 09:37:05;;;;;;;5.30;1.40;;;;;;;21.34;75.24;101339.50;5012565;28;20049;-35
2022/06/19 09:39:46;;;;;;;4.07;1.05;;;;;;;21.31;73.52;101329.69;5003631;28;20136;-33
2022/06/19 09:42:22;;;;;;;5.55;1.40;;;;;;;21.18;72.72;101335.75;5012837;28;20052;-30
2022/06/19 09:44:56;;;;;;;3.80;1.05;;;;;;;21.04;73.40;101346.66;5013581;28;20046;-30
2022/06/19 09:47:33;;;;;;;5.82;1.27;;;;;;;21.16;75.50;101338.13;5012495;28;20065;-33
2022/06/19 09:50:26;;;;;;;6.85;1.35;;;;;;;21.26;73.48;101331.97;5012553;28;20529;-30
2022/06/19 09:53:02;;;;;;;4.05;1.30;;;;;;;21.39;72.90;101344.09;5012755;28;20050;-32
2022/06/19 09:55:35;;;;;;;5.15;1.10;;;;;;;21.48;72.01;101345.59;5013328;28;20060;-32
2022/06/19 09:58:10;;;;;;;5.15;1.05;;;;;;;21.62;71.42;101345.16;5012329;28;20053;-32
2022/06/19 10:00:40;;;;;;;4.85;1.30;;;;;;;21.74;72.01;101342.28;5013302;28;20052;-30
2022/06/19 10:03:28;;;;;;;4.07;1.20;;;;;;;21.92;70.45;101339.94;5011727;28;20056;-30
2022/06/19 10:06:03;;;;;;;7.00;1.35;;;;;;;22.00;70.22;101331.25;5012727;28;20574;-35
2022/06/19 10:08:40;;;;;;;9.45;1.45;;;;;;;22.09;68.88;101339.59;5014400;28;20406;-31
2022/06/19 10:11:11;;;;;;;6.15;1.50;;;;;;;22.03;67.51;101338.22;5013327;28;20056;-30
2022/06/19 10:13:42;;;;;;;7.60;1.40;;;;;;;21.93;68.24;101341.59;5013678;28;20038;-30
2022/06/19 10:16:21;;;;;;;6.55;1.48;;;;;;;21.98;69.20;101358.38;5014081;28;20304;-38
2022/06/19 10:18:52;;;;;;;7.28;1.50;;;;;;;22.18;69.48;101360.13;5012061;28;20044;-35
2022/06/19 10:24:24;;;;;;;4.65;1.10;;;;;;;22.38;67.56;101334.66;5010916;28;20057;-30
2022/06/19 10:27:00;;;;;;;5.18;1.35;;;;;;;22.46;68.48;101340.16;5013316;28;20054;-34
2022/06/19 10:29:45;;;;;;;7.45;1.38;;;;;;;22.76;67.51;101343.31;5013777;28;20470;-31
2022/06/19 10:32:40;;;;;;;4.88;1.10;;;;;;;23.06;65.13;101342.81;5012776;28;20049;-30
2022/06/19 10:35:15;;;;;;;5.85;1.40;;;;;;;23.24;64.84;101346.88;5012494;28;20050;-35
2022/06/19 10:37:57;;;;;;;7.22;1.40;;;;;;;23.45;62.77;101347.31;4997288;28;20084;-30
2022/06/19 10:40:38;;;;;;;5.75;1.27;;;;;;;23.52;61.45;101350.34;5009373;28;20042;-32
2022/06/19 10:43:23;;;;;;;4.82;1.30;;;;;;;23.75;61.69;101336.16;4998808;28;20137;-30
2022/06/19 10:45:53;;;;;;;4.35;1.10;;;;;;;24.04;60.69;101341.19;5011221;28;20050;-30
2022/06/19 10:48:27;;;;;;;5.68;1.50;;;;;;;24.25;58.89;101359.91;5013480;28;20514;-33
2022/06/19 10:51:14;;;;;;;6.15;1.65;;;;;;;24.41;57.44;101354.91;5012895;28;20073;-30
2022/06/19 10:54:21;;;;;;;4.57;1.30;;;;;;;24.48;56.29;101355.03;5012338;28;20519;-30
2022/06/19 10:57:02;;;;;;;6.78;1.33;;;;;;;24.48;58.16;101354.22;5013214;28;20049;-31
2022/06/19 10:59:31;;;;;;;4.03;1.00;;;;;;;24.57;57.63;101357.63;5012935;28;20137;-30
2022/06/19 11:05:00;;;;;;;5.18;1.23;;;;;;;24.33;56.55;101371.09;5012681;28;20046;-31
2022/06/19 11:07:31;;;;;;;3.78;1.00;;;;;;;24.03;56.20;101387.19;5002297;28;20038;-35
2022/06/19 11:10:07;;;;;;;4.03;1.15;;;;;;;23.80;56.61;101363.50;5006449;28;20506;-32
2022/06/19 11:12:41;;;;;;;5.68;1.48;;;;;;;23.62;57.34;101364.00;5012711;28;20140;-30
2022/06/19 11:15:11;;;;;;;5.47;1.27;;;;;;;23.51;56.90;101385.72;5011494;28;20483;-30
2022/06/19 11:17:40;;;;;;;5.30;1.08;;;;;;;23.36;57.26;101378.06;5012705;28;20048;-31
2022/06/19 11:20:26;;;;;;;5.22;1.63;;;;;;;23.22;57.14;101372.03;5012552;28;20088;-31
2022/06/19 11:23:01;;;;;;;4.28;1.30;;;;;;;23.08;58.68;101377.41;5001153;28;20141;-35
2022/06/19 11:25:34;;;;;;;5.32;1.50;;;;;;;22.97;58.16;101383.72;5012497;28;20056;-31
2022/06/19 11:28:05;;;;;;;6.25;1.42;;;;;;;22.94;58.25;101381.59;5011961;28;20076;-30
2022/06/19 11:30:37;;;;;;;7.35;1.70;;;;;;;22.96;58.91;101372.69;5011469;28;20566;-31
2022/06/19 11:33:09;;;;;;;5.03;1.30;;;;;;;23.03;58.97;101361.44;5012227;28;20054;-32
2022/06/19 11:35:40;;;;;;;5.75;1.70;;;;;;;23.25;59.09;101369.28;5011369;28;20076;-30
2022/06/19 11:38:08;;;;;;;7.50;1.57;;;;;;;23.61;58.25;101372.91;5012315;28;20038;-31
2022/06/19 11:40:41;;;;;;;4.82;1.25;;;;;;;23.86;56.56;101359.16;5009418;28;20079;-30
2022/06/19 11:43:27;;;;;;;5.45;1.45;;;;;;;24.04;54.08;101361.16;5010231;28;20045;-30
2022/06/19 11:46:07;;;;;;;5.93;1.27;;;;;;;24.14;55.63;101359.72;5011539;28;21272;-31
2022/06/19 11:48:35;;;;;;;7.55;1.70;;;;;;;24.28;55.23;101356.31;5012438;28;20053;-38
2022/06/19 11:51:13;;;;;;;6.68;1.83;;;;;;;24.47;54.21;101361.94;5011055;28;20072;-30
2022/06/19 11:53:44;;;;;;;3.72;1.05;;;;;;;24.62;53.44;101360.13;5012315;28;20069;-29